Time;durP1;ratioP1;P1;durP2;ratioP2;P2;SDS_P1;SDS_P2;PMS_P1;PMS_P2;Temp;Humidity;BMP_temperature;BMP_pressure;BME280_temperature;BME280_humidity;BME280_pressure;Samples;Min_cycle;Max_cycle;Signal;HPM_P1;HPM_P2
2022/06/21 05:55:35;;;;;;;141.32;46.88;;;;;;;14.63;60.30;96368.00;2083668;28;20561;-58
2022/06/21 05:56:38;;;;;;;139.15;46.88;;;;;;;14.78;59.97;96368.81;2078651;28;20774;-59
2022/06/21 05:57:45;;;;;;;125.00;22.85;;;;;;;14.18;59.90;96299.97;2072394;28;20225;-59
2022/06/21 05:58:59;;;;;;;131.68;27.85;;;;;;;14.97;59.44;96378.94;2069537;28;20206;-59
2022/06/21 06:17:59;;;;;;;137.85;44.15;;;;;;;15.06;60.11;96374.88;2089720;27;20550;-58
2022/06/21 06:19:09;;;;;;;149.88;52.53;;;;;;;15.10;60.06;96357.94;2077841;28;20206;-58
2022/06/21 06:20:23;;;;;;;143.68;53.45;;;;;;;15.63;59.38;96383.28;2078275;28;20210;-58
2022/06/21 06:21:30;;;;;;;126.20;21.55;;;;;;;15.70;59.07;96381.91;2078171;28;20658;-59
2022/06/21 06:23:02;;;;;;;118.70;14.82;;;;;;;16.10;58.15;96375.66;2077361;28;20234;-58
2022/06/21 06:24:14;;;;;;;122.35;16.83;;;;;;;16.27;57.41;96372.66;2091965;28;20211;-59
2022/06/21 06:38:46;;;;;;;121.15;14.48;;;;;;;17.03;58.24;96372.47;2100455;27;20577;-59
2022/06/21 06:39:48;;;;;;;123.45;10.18;;;;;;;16.96;58.41;96369.44;2094732;28;20476;-58
2022/06/21 06:41:19;;;;;;;122.28;14.60;;;;;;;16.77;59.32;96354.13;2094861;28;20205;-58
2022/06/21 06:42:25;;;;;;;127.38;19.73;;;;;;;16.65;60.64;96363.75;2083537;28;20223;-58
2022/06/21 06:43:35;;;;;;;155.57;47.92;;;;;;;16.64;60.07;96359.44;2094429;28;20556;-58
2022/06/21 06:44:58;;;;;;;122.50;8.70;;;;;;;16.99;59.30;96360.47;2083326;28;20205;-59
2022/06/21 06:46:00;;;;;;;121.43;10.18;;;;;;;16.92;59.27;96359.22;2077624;28;20327;-59
2022/06/21 06:47:03;;;;;;;118.78;11.07;;;;;;;17.19;58.90;96358.09;2069443;28;20200;-59
2022/06/21 06:48:22;;;;;;;129.88;10.73;;;;;;;17.38;58.02;96358.41;2093478;28;20196;-61
2022/06/21 06:49:32;;;;;;;121.53;10.63;;;;;;;17.55;58.02;96351.81;2090904;28;20215;-58
2022/06/21 07:03:52;;;;;;;117.50;9.05;;;;;;;17.48;58.94;96362.97;2084686;28;21070;-58
2022/06/21 07:05:03;;;;;;;120.40;10.43;;;;;;;17.92;58.68;96385.06;2084223;28;20201;-58
2022/06/21 07:06:24;;;;;;;113.85;9.85;;;;;;;17.89;58.74;96382.66;2078917;28;20242;-58
2022/06/21 07:07:53;;;;;;;117.30;11.13;;;;;;;17.82;58.08;96353.25;2070714;28;20322;-60
2022/06/21 07:09:02;;;;;;;119.22;14.32;;;;;;;17.64;59.33;96371.38;2078633;28;20196;-60
2022/06/21 07:10:13;;;;;;;120.50;20.98;;;;;;;17.44;60.12;96373.72;2073987;28;20676;-61
2022/06/21 07:11:24;;;;;;;128.88;25.15;;;;;;;17.50;59.91;96390.09;2075107;28;20200;-60
2022/06/21 07:12:31;;;;;;;118.28;19.33;;;;;;;17.80;59.59;96392.13;2071010;28;20288;-60
2022/06/21 07:13:33;;;;;;;138.98;48.35;;;;;;;17.93;58.85;96398.19;2083168;28;20615;-60
2022/06/21 07:14:35;;;;;;;134.07;39.88;;;;;;;17.78;59.34;96391.44;2077208;28;20196;-60
2022/06/21 07:15:44;;;;;;;132.80;44.78;;;;;;;17.74;59.64;96398.75;2075057;28;20226;-59
2022/06/21 07:16:50;;;;;;;133.30;45.40;;;;;;;17.81;59.65;96404.38;2069503;28;20208;-59
2022/06/21 07:17:55;;;;;;;137.70;46.35;;;;;;;17.68;59.57;96366.69;2073118;28;20227;-59
2022/06/21 07:19:00;;;;;;;138.52;44.78;;;;;;;18.01;58.86;96404.66;2079027;28;20201;-59
2022/06/21 07:20:03;;;;;;;152.13;68.25;;;;;;;17.90;58.88;96408.97;2082892;28;20268;-60
2022/06/21 07:21:05;;;;;;;165.73;95.57;;;;;;;18.08;58.16;96382.94;2075267;28;20583;-59
2022/06/21 07:22:17;;;;;;;172.63;93.78;;;;;;;18.27;58.15;96398.16;2064442;28;20641;-59
2022/06/21 07:23:21;;;;;;;187.63;136.93;;;;;;;18.47;57.63;96395.69;2078894;28;20216;-59
2022/06/21 07:24:23;;;;;;;202.85;169.43;;;;;;;18.83;56.23;96383.13;2079324;28;20328;-60
2022/06/21 07:25:31;;;;;;;199.88;164.77;;;;;;;19.31;55.38;96395.06;2073419;28;20216;-60
2022/06/21 07:26:39;;;;;;;197.75;161.13;;;;;;;19.51;54.71;96385.41;2073345;28;20401;-60
2022/06/21 07:27:45;;;;;;;192.40;146.15;;;;;;;19.23;55.40;96348.03;2068618;28;20225;-60
2022/06/21 07:28:53;;;;;;;193.80;142.52;;;;;;;19.12;55.23;96339.34;2081128;28;20298;-61
2022/06/21 07:30:01;;;;;;;158.20;79.90;;;;;;;19.04;54.55;96300.31;2073842;28;20754;-60
2022/06/21 07:48:22;;;;;;;280.20;231.63;;;;;;;18.39;56.20;96347.91;2098512;27;21118;-59
2022/06/21 07:49:32;;;;;;;164.18;83.40;;;;;;;18.20;56.38;96338.81;2094657;28;20203;-58
2022/06/21 07:50:43;;;;;;;167.95;96.97;;;;;;;18.41;56.21;96330.97;2094396;28;20199;-59
2022/06/21 07:51:52;;;;;;;248.18;200.85;;;;;;;18.09;56.60;96326.50;2095026;28;20207;-59
2022/06/21 07:53:11;;;;;;;171.55;95.63;;;;;;;18.15;56.98;96303.19;2084304;28;20219;-59
2022/06/21 07:54:37;;;;;;;176.75;121.70;;;;;;;18.18;56.92;96327.56;2090643;28;20274;-60
2022/06/21 07:55:56;;;;;;;188.63;128.23;;;;;;;18.09;57.07;96309.78;2079064;28;20232;-60
2022/06/21 07:57:05;;;;;;;194.32;132.38;;;;;;;18.42;56.63;96319.44;2078771;28;20193;-61
2022/06/21 07:58:13;;;;;;;192.10;141.68;;;;;;;18.24;56.65;96305.91;2078925;28;20221;-60
2022/06/21 07:59:20;;;;;;;178.02;108.30;;;;;;;18.27;56.83;96321.50;2078595;28;20291;-60
2022/06/21 08:00:25;;;;;;;204.43;164.63;;;;;;;18.70;55.83;96319.81;2078848;28;20201;-60
2022/06/21 08:20:06;;;;;;;129.98;21.08;;;;;;;17.99;56.48;96340.53;2090551;27;21063;-59
2022/06/21 08:21:13;;;;;;;122.03;21.33;;;;;;;18.14;56.37;96314.69;2081889;28;20239;-59
2022/06/21 08:22:18;;;;;;;136.50;42.92;;;;;;;18.46;55.69;96325.28;2069997;27;20204;-59
2022/06/21 08:23:25;;;;;;;165.38;88.03;;;;;;;19.01;54.19;96325.22;2069896;28;20834;-59
2022/06/21 08:24:37;;;;;;;177.52;106.22;;;;;;;19.30;53.66;96331.66;2064511;28;20190;-59
2022/06/21 08:25:59;;;;;;;168.32;100.15;;;;;;;19.81;52.18;96348.50;2057956;28;20198;-59
2022/06/21 08:27:15;;;;;;;157.48;79.18;;;;;;;20.16;51.06;96355.19;2048350;28;20204;-60
2022/06/21 08:28:24;;;;;;;147.57;62.25;;;;;;;20.33;50.92;96351.06;2080450;28;20750;-60
2022/06/21 08:29:33;;;;;;;216.40;163.57;;;;;;;19.79;50.75;96361.88;2079593;28;20197;-59
2022/06/21 08:31:00;;;;;;;208.30;178.50;;;;;;;19.73;51.75;96360.59;2074427;28;20197;-60
2022/06/21 08:32:11;;;;;;;187.85;141.38;;;;;;;20.07;50.91;96367.44;2063016;28;20259;-59
2022/06/21 08:47:04;;;;;;;152.48;62.67;;;;;;;20.28;50.81;96319.66;2092661;27;20549;-59
2022/06/21 08:48:45;;;;;;;157.18;84.82;;;;;;;20.68;49.62;96328.47;2074676;28;20225;-59
2022/06/21 08:50:13;;;;;;;179.05;122.07;;;;;;;20.01;49.91;96318.47;2074956;28;20197;-59
2022/06/21 08:51:22;;;;;;;189.45;153.93;;;;;;;20.59;49.97;96316.88;2073506;28;20197;-60
2022/06/21 08:52:51;;;;;;;183.98;137.48;;;;;;;20.47;48.38;96315.38;2072777;28;20222;-60
2022/06/21 08:54:09;;;;;;;167.45;105.00;;;;;;;20.22;48.97;96275.13;2073991;28;20197;-60
2022/06/21 08:55:16;;;;;;;213.30;151.30;;;;;;;20.11;48.78;96322.97;2074561;28;20202;-60
2022/06/21 08:56:40;;;;;;;182.82;110.25;;;;;;;20.52;49.34;96329.03;2074908;28;20830;-60
2022/06/21 08:58:02;;;;;;;174.48;117.22;;;;;;;21.48;47.19;96328.28;2067755;28;20263;-60
2022/06/21 08:59:18;;;;;;;143.93;53.72;;;;;;;21.77;45.51;96336.16;2080199;28;20587;-60
2022/06/21 09:00:34;;;;;;;125.05;32.20;;;;;;;21.29;46.92;96326.50;2074815;28;20205;-60
2022/06/21 09:02:15;;;;;;;125.80;24.20;;;;;;;21.24;46.87;96332.22;2075089;28;20189;-60
2022/06/21 09:03:31;;;;;;;119.10;21.30;;;;;;;20.67;47.35;96324.16;2073594;28;20223;-59
2022/06/21 09:04:55;;;;;;;118.60;18.52;;;;;;;21.49;45.86;96322.81;2076728;28;20200;-60
2022/06/21 09:06:10;;;;;;;120.68;19.02;;;;;;;21.92;44.88;96312.59;2077778;28;20193;-60
2022/06/21 09:07:49;;;;;;;120.43;19.40;;;;;;;21.66;45.08;96321.25;2063798;28;20198;-60
2022/06/21 09:08:57;;;;;;;131.88;33.22;;;;;;;21.77;44.91;96324.72;2081144;28;20200;-60
2022/06/21 09:10:34;;;;;;;135.23;42.03;;;;;;;22.02;44.45;96329.34;2074355;28;20232;-60
2022/06/21 09:12:32;;;;;;;130.85;34.88;;;;;;;21.72;45.06;96342.91;2074242;28;20201;-60
2022/06/21 09:13:59;;;;;;;158.63;38.13;;;;;;;20.66;47.03;96333.94;2071875;28;20331;-60
2022/06/21 09:15:06;;;;;;;128.27;35.08;;;;;;;20.63;47.42;96336.88;2068176;28;20296;-61
2022/06/21 09:16:52;;;;;;;144.27;55.38;;;;;;;20.47;47.51;96340.06;2074488;28;20205;-60
2022/06/21 09:18:07;;;;;;;170.65;105.88;;;;;;;19.18;51.36;96344.94;2071437;28;20584;-60
2022/06/21 09:19:34;;;;;;;164.60;100.10;;;;;;;19.77;49.62;96344.44;2079851;28;20200;-60
2022/06/21 09:20:48;;;;;;;152.35;72.05;;;;;;;20.42;48.63;96339.63;2073753;28;20244;-60
2022/06/21 09:22:09;;;;;;;163.57;84.38;;;;;;;20.55;47.77;96342.84;2075269;28;20205;-60
2022/06/21 09:23:31;;;;;;;157.38;82.03;;;;;;;19.96;49.39;96312.75;2074976;28;20245;-59
2022/06/21 09:24:44;;;;;;;130.27;43.53;;;;;;;20.69;47.64;96338.94;2075453;28;20212;-59
2022/06/21 09:26:03;;;;;;;159.18;76.28;;;;;;;20.53;48.45;96336.00;2073921;28;20547;-60
2022/06/21 09:27:18;;;;;;;146.40;55.58;;;;;;;20.79;47.49;96324.91;2067381;28;20201;-60
2022/06/21 09:28:40;;;;;;;162.80;84.15;;;;;;;20.92;47.33;96336.03;2081432;28;20204;-61
2022/06/21 09:30:14;;;;;;;157.95;71.85;;;;;;;21.29;46.41;96327.34;2076231;28;20189;-60
2022/06/21 09:31:50;;;;;;;187.55;129.18;;;;;;;21.15;47.11;96330.44;2074246;28;20762;-60
2022/06/21 09:33:14;;;;;;;157.80;79.32;;;;;;;20.92;47.27;96336.03;2071462;28;20336;-60
2022/06/21 09:34:19;;;;;;;151.27;69.80;;;;;;;21.24;47.18;96332.22;2071969;28;20209;-60
2022/06/21 09:35:42;;;;;;;142.32;69.45;;;;;;;21.28;47.30;96331.00;2073110;28;20197;-60
2022/06/21 09:36:54;;;;;;;178.05;111.30;;;;;;;21.45;47.59;96345.34;2074130;28;20193;-60
2022/06/21 09:38:25;;;;;;;148.20;75.07;;;;;;;21.61;46.23;96326.19;2071408;28;20220;-60
2022/06/21 09:39:41;;;;;;;139.25;53.50;;;;;;;21.57;46.62;96345.19;2078665;28;20721;-60
2022/06/21 09:40:56;;;;;;;144.35;68.50;;;;;;;21.01;47.74;96287.44;2073376;28;20202;-60
2022/06/21 09:42:38;;;;;;;198.57;135.52;;;;;;;20.75;48.53;96334.94;2073373;28;20194;-60
2022/06/21 09:44:02;;;;;;;132.75;47.28;;;;;;;21.79;46.04;96318.25;2069679;28;20208;-60
2022/06/21 09:45:18;;;;;;;153.07;74.60;;;;;;;22.19;46.18;96321.56;2069954;28;20208;-59
2022/06/21 09:46:20;;;;;;;160.15;83.88;;;;;;;21.76;45.80;96323.84;2072490;28;20232;-59
2022/06/21 09:47:27;;;;;;;143.57;62.83;;;;;;;21.09;46.82;96315.06;2068821;28;20319;-58
2022/06/21 09:49:06;;;;;;;177.85;116.97;;;;;;;20.97;47.34;96298.47;2080596;28;20551;-58
2022/06/21 09:50:16;;;;;;;203.70;137.65;;;;;;;20.25;48.82;96319.09;2066296;28;20198;-58
2022/06/21 09:51:26;;;;;;;166.60;98.13;;;;;;;20.16;49.36;96308.34;2066384;28;20203;-59
2022/06/21 09:52:41;;;;;;;191.75;136.15;;;;;;;20.27;48.94;96306.53;2060629;28;20220;-59
2022/06/21 09:53:58;;;;;;;189.48;128.68;;;;;;;20.98;47.04;96321.38;2079993;28;20294;-59
2022/06/21 09:55:27;;;;;;;151.00;78.13;;;;;;;20.88;47.68;96319.56;2075738;28;20212;-59
2022/06/21 09:57:10;;;;;;;270.45;232.27;;;;;;;21.00;47.95;96314.97;2073019;28;20197;-58
2022/06/21 09:58:38;;;;;;;176.85;119.97;;;;;;;21.20;47.24;96314.91;2057423;28;20686;-58
2022/06/21 10:00:11;;;;;;;152.77;63.28;;;;;;;21.07;47.86;96283.38;2049135;28;20366;-59
2022/06/21 10:01:41;;;;;;;258.35;221.68;;;;;;;21.26;47.21;96308.22;2066819;28;20684;-59
2022/06/21 10:03:03;;;;;;;142.43;65.47;;;;;;;21.59;46.77;96301.56;2066468;28;20222;-59
2022/06/21 10:04:28;;;;;;;179.35;107.95;;;;;;;21.59;46.93;96290.13;2077657;28;20204;-62
2022/06/21 10:05:35;;;;;;;158.38;73.75;;;;;;;21.32;46.82;96305.00;2071267;28;20198;-59
2022/06/21 10:07:01;;;;;;;177.75;114.97;;;;;;;20.98;47.75;96294.84;2066864;28;20226;-59
2022/06/21 10:08:29;;;;;;;149.93;77.22;;;;;;;21.39;47.18;96308.72;2068125;28;20676;-59
2022/06/21 10:09:50;;;;;;;160.93;76.45;;;;;;;21.21;47.50;96309.47;2068212;28;20198;-59
2022/06/21 10:11:12;;;;;;;181.10;112.95;;;;;;;21.06;47.97;96294.97;2068717;28;20198;-58
2022/06/21 10:12:52;;;;;;;174.38;106.07;;;;;;;21.50;47.31;96291.78;2061295;28;20214;-59
2022/06/21 10:14:21;;;;;;;248.68;203.50;;;;;;;21.06;48.54;96272.91;2076237;28;20208;-58
2022/06/21 10:15:54;;;;;;;165.18;96.65;;;;;;;21.98;46.23;96292.59;2066712;28;20202;-59
2022/06/21 10:17:08;;;;;;;148.60;72.10;;;;;;;21.76;46.58;96291.97;2066375;28;20240;-59
2022/06/21 10:39:21;;;;;;;152.52;76.13;;;;;;;21.82;47.16;96251.53;2091897;27;20551;-58
2022/06/21 10:40:53;;;;;;;146.45;70.38;;;;;;;22.51;46.44;96264.38;2086638;28;20192;-59
2022/06/21 10:42:48;;;;;;;169.20;100.00;;;;;;;22.58;45.66;96260.13;2086063;28;20199;-58
2022/06/21 10:44:24;;;;;;;172.00;95.97;;;;;;;22.48;46.35;96244.25;2078549;28;20288;-59
2022/06/21 10:45:57;;;;;;;143.10;59.83;;;;;;;23.05;44.96;96251.03;2077524;28;20848;-57
2022/06/21 10:47:06;;;;;;;133.55;46.42;;;;;;;23.16;44.66;96244.66;2077144;28;20204;-58
2022/06/21 10:48:33;;;;;;;169.05;88.82;;;;;;;23.54;43.80;96250.50;2078291;28;20518;-58
2022/06/21 10:50:01;;;;;;;121.75;26.90;;;;;;;23.83;42.85;96259.13;2078589;28;20719;-62
2022/06/21 10:51:53;;;;;;;138.30;47.78;;;;;;;22.48;46.39;96254.91;2068818;28;20293;-58
2022/06/21 10:53:33;;;;;;;179.63;124.18;;;;;;;24.29;43.15;96257.78;2058409;28;20685;-59
2022/06/21 10:55:12;;;;;;;140.77;52.75;;;;;;;23.55;43.89;96241.50;2074272;28;20204;-59
2022/06/21 10:57:10;;;;;;;120.68;30.48;;;;;;;24.20;42.75;96256.09;2078404;28;20197;-59
2022/06/21 10:58:26;;;;;;;140.02;61.83;;;;;;;24.74;41.86;96253.00;2050289;28;20241;-59
2022/06/21 11:01:37;;;;;;;148.02;74.60;;;;;;;25.09;41.13;96274.19;2078124;28;20232;-59
2022/06/21 11:03:11;;;;;;;120.43;26.08;;;;;;;25.10;40.44;96270.50;2066003;28;20263;-59
2022/06/21 11:04:43;;;;;;;129.43;41.88;;;;;;;24.70;41.22;96272.22;2058553;28;20209;-59
2022/06/21 11:06:06;;;;;;;134.38;49.90;;;;;;;24.57;42.14;96268.16;2078417;28;20212;-59
2022/06/21 11:07:55;;;;;;;112.93;15.07;;;;;;;24.76;41.17;96242.19;2078003;28;20188;-59
2022/06/21 11:09:11;;;;;;;123.75;37.55;;;;;;;24.98;40.80;96261.19;2050169;28;20207;-59
2022/06/21 11:10:20;;;;;;;118.35;10.85;;;;;;;25.37;39.80;96261.31;2077705;28;20193;-59
2022/06/21 11:11:25;;;;;;;109.25;8.00;;;;;;;25.09;40.42;96259.00;2078122;28;20705;-59
2022/06/21 11:12:56;;;;;;;117.03;10.60;;;;;;;25.69;39.74;96251.53;2068162;28;20630;-59
2022/06/21 11:14:03;;;;;;;108.40;8.43;;;;;;;24.71;41.02;96260.50;2077592;28;20531;-59
2022/06/21 11:15:25;;;;;;;108.55;9.27;;;;;;;25.41;40.01;96261.81;2078109;28;20668;-59
2022/06/21 11:16:35;;;;;;;105.13;6.60;;;;;;;26.66;37.73;96252.19;2078413;28;20199;-59
2022/06/21 11:17:51;;;;;;;112.78;13.30;;;;;;;25.58;38.94;96228.69;2068090;28;20232;-59
2022/06/21 11:19:06;;;;;;;109.28;9.00;;;;;;;24.41;42.31;96244.13;2077350;28;20205;-59
2022/06/21 11:20:18;;;;;;;230.90;156.90;;;;;;;23.61;42.96;96246.19;2077753;28;20193;-58
2022/06/21 11:21:53;;;;;;;110.45;13.60;;;;;;;24.03;42.68;96239.22;2078187;28;20201;-59
2022/06/21 11:23:03;;;;;;;116.15;23.20;;;;;;;24.12;42.47;96234.72;2062505;28;20221;-59
2022/06/21 11:24:19;;;;;;;140.40;56.03;;;;;;;24.44;41.98;96238.44;2071188;28;20210;-59
2022/06/21 11:25:57;;;;;;;115.07;14.23;;;;;;;24.67;42.03;96229.81;2078341;28;20196;-60
2022/06/21 11:27:23;;;;;;;123.97;18.65;;;;;;;24.51;42.04;96231.47;2077476;28;20550;-59
2022/06/21 11:28:41;;;;;;;125.32;36.35;;;;;;;24.84;41.85;96220.81;2078468;28;20193;-59
2022/06/21 11:30:04;;;;;;;118.95;26.73;;;;;;;25.26;40.98;96218.91;2077503;28;20201;-60
2022/06/21 11:31:20;;;;;;;146.23;65.47;;;;;;;25.04;41.74;96223.94;2077878;28;20200;-60
2022/06/21 11:32:36;;;;;;;130.25;48.20;;;;;;;24.70;41.88;96216.97;2065748;28;20241;-60
2022/06/21 11:34:01;;;;;;;147.82;63.33;;;;;;;24.89;41.12;96218.47;2077153;28;20200;-60
2022/06/21 11:35:32;;;;;;;133.48;55.47;;;;;;;24.25;42.39;96216.44;2077951;28;20307;-60
2022/06/21 11:37:03;;;;;;;134.38;56.05;;;;;;;24.53;42.12;96197.44;2077396;28;20600;-60
2022/06/21 11:38:23;;;;;;;144.13;68.93;;;;;;;24.62;42.33;96214.28;2077655;28;20224;-60
2022/06/21 11:39:34;;;;;;;144.80;75.60;;;;;;;24.97;41.76;96208.78;2077729;28;20220;-60
2022/06/21 11:41:07;;;;;;;115.85;22.02;;;;;;;25.00;41.32;96198.59;2077465;28;20212;-60
2022/06/21 11:42:12;;;;;;;125.75;38.70;;;;;;;25.90;40.12;96201.97;2068343;28;20195;-60
2022/06/21 11:43:44;;;;;;;121.47;27.58;;;;;;;25.25;40.44;96194.03;2076800;28;20201;-60
2022/06/21 11:45:08;;;;;;;123.75;16.05;;;;;;;25.21;40.71;96208.72;2077283;28;20540;-60
2022/06/21 11:46:30;;;;;;;180.23;106.32;;;;;;;23.94;43.08;96198.34;2078291;28;20200;-59
2022/06/21 11:47:51;;;;;;;134.25;52.60;;;;;;;24.29;43.02;96199.09;2077336;28;20232;-60
2022/06/21 11:49:35;;;;;;;174.05;120.60;;;;;;;25.25;40.69;96183.34;2078367;28;20193;-60
2022/06/21 11:51:11;;;;;;;108.75;11.48;;;;;;;25.79;39.93;96186.31;2040839;29;20725;-60
2022/06/21 11:52:28;;;;;;;115.82;21.77;;;;;;;26.21;39.97;96187.78;2034686;28;20312;-60
2022/06/21 11:53:51;;;;;;;123.07;17.58;;;;;;;25.33;41.01;96195.00;2042917;29;20204;-60
2022/06/21 11:55:18;;;;;;;109.57;11.70;;;;;;;26.11;39.73;96185.31;2038233;29;20933;-60
2022/06/21 11:56:53;;;;;;;113.63;6.00;;;;;;;26.04;39.24;96203.06;2053420;28;20205;-61
2022/06/21 11:58:08;;;;;;;104.70;5.30;;;;;;;25.64;40.60;96207.63;2053748;28;20218;-61
2022/06/21 11:59:22;;;;;;;112.90;14.45;;;;;;;26.26;39.19;96204.13;2063091;28;20335;-60
2022/06/21 12:00:46;;;;;;;111.30;17.90;;;;;;;26.54;38.64;96204.41;2064648;28;20201;-61
2022/06/21 12:01:52;;;;;;;124.90;30.08;;;;;;;24.91;41.42;96210.28;2064511;28;20206;-60
2022/06/21 12:02:57;;;;;;;110.15;11.13;;;;;;;24.35;43.38;96208.25;2057625;28;20218;-60
2022/06/21 12:04:20;;;;;;;113.45;15.90;;;;;;;24.61;42.77;96210.78;2067699;28;20202;-60
2022/06/21 12:05:36;;;;;;;113.13;12.90;;;;;;;24.87;42.59;96208.97;2064910;28;20190;-61
2022/06/21 12:06:45;;;;;;;113.03;15.80;;;;;;;24.33;43.00;96204.94;2064209;28;20206;-61
2022/06/21 12:08:33;;;;;;;110.10;14.02;;;;;;;24.55;43.32;96203.44;2063921;28;20885;-60
2022/06/21 12:09:41;;;;;;;118.38;27.30;;;;;;;25.55;41.18;96201.47;2057122;28;20229;-60
2022/06/21 12:10:45;;;;;;;111.05;18.52;;;;;;;26.16;40.29;96201.69;2064642;28;20198;-61
2022/06/21 12:12:13;;;;;;;112.30;9.07;;;;;;;26.47;39.17;96198.09;2064406;28;20206;-60
2022/06/21 12:13:42;;;;;;;114.47;7.18;;;;;;;25.95;40.20;96193.41;2072183;28;20205;-60
2022/06/21 12:14:59;;;;;;;103.18;6.82;;;;;;;26.46;39.30;96191.09;2072575;28;20206;-60
2022/06/21 12:16:29;;;;;;;109.07;8.15;;;;;;;26.50;39.35;96188.88;2072639;28;20198;-60
2022/06/21 12:17:52;;;;;;;109.72;8.63;;;;;;;26.68;39.38;96183.22;2060983;28;20221;-60
2022/06/21 12:19:01;;;;;;;120.18;24.75;;;;;;;26.84;39.14;96175.06;2072016;28;20194;-60
2022/06/21 12:20:14;;;;;;;112.50;24.17;;;;;;;26.92;39.15;96165.28;2071824;28;20205;-60
2022/06/21 12:21:26;;;;;;;116.25;31.70;;;;;;;26.91;39.51;96167.13;2071784;28;20702;-60
2022/06/21 12:22:35;;;;;;;125.95;33.60;;;;;;;26.94;38.78;96163.25;2062078;28;20448;-60
2022/06/21 12:23:44;;;;;;;115.35;23.90;;;;;;;27.02;38.19;96161.31;2072171;28;20292;-60
2022/06/21 12:24:48;;;;;;;118.07;27.95;;;;;;;25.77;40.00;96165.09;2071767;28;20688;-60
2022/06/21 12:25:50;;;;;;;123.78;27.98;;;;;;;26.32;39.43;96165.97;2071119;28;20753;-60
2022/06/21 12:26:55;;;;;;;119.22;25.48;;;;;;;26.48;39.15;96177.53;2072458;28;20810;-60
2022/06/21 12:27:59;;;;;;;122.53;30.67;;;;;;;26.36;39.67;96175.28;2071936;28;20229;-60
2022/06/21 12:29:21;;;;;;;114.90;24.45;;;;;;;26.70;38.87;96173.16;2071604;28;20194;-60
2022/06/21 12:30:27;;;;;;;119.30;23.85;;;;;;;26.27;39.06;96116.66;2072557;28;20743;-60
2022/06/21 12:31:35;;;;;;;119.22;24.52;;;;;;;27.23;38.27;96180.38;2072352;28;20205;-60
2022/06/21 12:32:36;;;;;;;120.68;30.50;;;;;;;28.10;36.71;96176.97;2058662;28;20245;-60
2022/06/21 12:33:38;;;;;;;128.55;34.80;;;;;;;28.54;35.52;96180.47;2070059;28;20225;-60
2022/06/21 12:34:42;;;;;;;133.73;53.65;;;;;;;28.11;36.09;96165.22;2072061;28;20207;-60
2022/06/21 12:35:49;;;;;;;124.63;45.45;;;;;;;28.83;35.17;96168.75;2072478;28;20201;-60
2022/06/21 12:36:58;;;;;;;137.48;59.35;;;;;;;27.50;36.75;96169.03;2072561;28;20198;-60
2022/06/21 12:37:59;;;;;;;123.47;43.28;;;;;;;27.75;37.16;96157.16;2066323;28;20225;-60
2022/06/21 12:39:29;;;;;;;155.50;79.43;;;;;;;28.58;35.90;96154.91;2072208;28;20704;-60
2022/06/21 12:40:38;;;;;;;126.68;38.60;;;;;;;29.64;34.47;96148.56;2072069;28;20882;-60
2022/06/21 12:42:08;;;;;;;163.30;97.15;;;;;;;29.58;33.49;96125.16;2070824;28;20204;-60
2022/06/21 12:43:40;;;;;;;150.35;90.35;;;;;;;29.13;34.55;96114.78;2071740;28;20213;-60
2022/06/21 12:45:19;;;;;;;145.00;92.35;;;;;;;28.83;34.46;96109.66;2071662;28;20534;-60
2022/06/21 12:46:34;;;;;;;151.82;85.85;;;;;;;28.85;35.12;96096.03;2072192;28;20202;-60
2022/06/21 12:47:52;;;;;;;155.80;104.55;;;;;;;29.45;34.69;96084.78;2071565;28;20757;-60
2022/06/21 12:49:32;;;;;;;152.57;105.28;;;;;;;30.52;33.10;96078.78;2071964;28;20193;-60
2022/06/21 12:50:52;;;;;;;139.52;60.97;;;;;;;30.53;32.62;96073.19;2069544;28;20198;-60
2022/06/21 12:52:02;;;;;;;109.47;25.48;;;;;;;30.29;32.75;96069.22;2071679;28;20209;-60
2022/06/21 12:53:31;;;;;;;126.03;45.65;;;;;;;29.08;34.96;96076.94;2071293;28;20217;-60
2022/06/21 12:55:07;;;;;;;149.15;100.43;;;;;;;28.08;35.69;96090.44;2071338;28;20225;-60
2022/06/21 12:56:39;;;;;;;150.85;101.07;;;;;;;27.56;36.85;96102.28;2071902;28;20208;-60
2022/06/21 12:57:58;;;;;;;149.95;81.72;;;;;;;28.26;36.30;96124.06;2057781;28;20225;-60
2022/06/21 12:59:19;;;;;;;172.10;118.65;;;;;;;27.32;37.56;96131.84;2063704;28;20233;-60
2022/06/21 13:00:42;;;;;;;136.48;52.53;;;;;;;26.82;38.92;96128.06;2071941;28;20204;-60
2022/06/21 13:02:06;;;;;;;124.53;30.52;;;;;;;27.19;38.31;96137.84;2071508;28;20237;-60
2022/06/21 13:03:32;;;;;;;136.95;48.70;;;;;;;26.12;40.06;96135.31;2071695;28;20226;-60
2022/06/21 13:04:39;;;;;;;120.70;27.85;;;;;;;25.77;40.29;96134.88;2071498;28;20202;-61
2022/06/21 13:06:27;;;;;;;117.35;29.23;;;;;;;27.18;37.93;96133.50;2071254;28;20213;-61
2022/06/21 13:08:02;;;;;;;112.25;21.38;;;;;;;28.85;36.01;96133.66;2071503;28;20590;-60
2022/06/21 13:09:13;;;;;;;140.65;56.50;;;;;;;27.63;36.88;96129.97;2071868;28;20198;-59
2022/06/21 13:10:40;;;;;;;116.45;24.77;;;;;;;28.23;36.81;96124.44;2071426;28;20190;-60
2022/06/21 13:12:10;;;;;;;122.80;32.35;;;;;;;28.11;36.87;96121.44;2071344;28;20661;-60
2022/06/21 13:13:39;;;;;;;111.97;21.88;;;;;;;29.27;35.16;96109.50;2071619;28;20221;-61
2022/06/21 13:15:14;;;;;;;122.90;39.55;;;;;;;29.49;34.10;96096.78;2072047;28;20197;-60
2022/06/21 13:16:26;;;;;;;123.50;35.53;;;;;;;30.49;33.19;96090.81;2052188;28;20199;-60
2022/06/21 13:17:54;;;;;;;137.48;62.38;;;;;;;29.40;34.27;96090.75;2060605;28;20236;-59
2022/06/21 13:19:18;;;;;;;145.07;74.50;;;;;;;29.28;34.74;96095.03;2066290;28;20207;-61
2022/06/21 13:20:38;;;;;;;157.80;95.18;;;;;;;26.64;38.72;96083.69;2071537;28;20210;-61
2022/06/21 13:22:05;;;;;;;116.80;25.50;;;;;;;26.94;38.95;96101.66;2071887;28;20204;-60
2022/06/21 13:23:20;;;;;;;118.03;30.52;;;;;;;28.25;37.07;96106.28;2071311;28;20213;-61
2022/06/21 13:24:44;;;;;;;129.32;43.83;;;;;;;28.65;35.82;96120.84;2071735;28;20197;-61
2022/06/21 13:26:21;;;;;;;145.45;74.13;;;;;;;29.05;34.96;96127.56;2071031;28;20464;-61
2022/06/21 13:27:39;;;;;;;148.68;97.13;;;;;;;29.20;34.37;96140.88;2059168;28;20596;-61
2022/06/21 13:29:05;;;;;;;157.13;106.75;;;;;;;27.33;37.62;96144.22;2070413;28;20252;-61
2022/06/21 13:30:20;;;;;;;113.22;24.70;;;;;;;26.53;39.15;96052.03;2071913;28;20198;-61
2022/06/21 13:31:40;;;;;;;123.13;30.95;;;;;;;27.79;37.53;96116.31;2071914;28;20208;-60
2022/06/21 13:32:53;;;;;;;116.82;20.65;;;;;;;28.66;36.62;96122.56;2060695;28;20240;-61
2022/06/21 13:34:21;;;;;;;121.47;34.50;;;;;;;27.51;37.91;96122.41;2070088;28;20197;-61
2022/06/21 13:35:32;;;;;;;119.43;22.45;;;;;;;27.60;38.41;96114.28;2071802;28;20209;-61
2022/06/21 13:36:49;;;;;;;117.55;28.50;;;;;;;28.64;36.77;96105.75;2071514;28;20197;-61
2022/06/21 13:37:59;;;;;;;128.80;40.28;;;;;;;29.27;35.81;96109.50;2055848;28;20292;-60
2022/06/21 13:39:20;;;;;;;126.70;43.45;;;;;;;29.96;34.75;96105.03;2064675;28;20238;-60
2022/06/21 13:40:32;;;;;;;138.65;52.97;;;;;;;29.05;35.70;96098.84;2071285;28;20437;-61
2022/06/21 13:43:08;;;;;;;142.75;75.85;;;;;;;30.59;33.91;96085.81;2070672;28;20309;-60
2022/06/21 13:44:29;;;;;;;156.70;102.63;;;;;;;31.24;32.90;96095.88;2071686;28;20197;-61
2022/06/21 13:46:08;;;;;;;158.30;110.35;;;;;;;29.84;34.19;96098.53;2070773;28;20394;-61
2022/06/21 13:47:18;;;;;;;182.10;135.88;;;;;;;28.35;36.75;96101.41;2060809;28;20245;-61
2022/06/21 13:48:43;;;;;;;176.73;129.05;;;;;;;29.61;34.94;96095.19;2069642;28;20202;-61
2022/06/21 13:50:09;;;;;;;176.32;139.68;;;;;;;29.81;34.49;96084.47;2070227;28;20657;-61
2022/06/21 13:51:13;;;;;;;172.43;127.63;;;;;;;29.75;34.32;96103.28;2071688;28;20197;-61